sensor_id;sensor_type;location;lat;lon;timestamp;temperature;humidity
31967;DHT22;18496;52.042;6.812;2023-05-10T00:01:27;16.90;99.90
31967;DHT22;18496;52.042;6.812;2023-05-10T00:03:30;16.90;99.90
31967;DHT22;18496;52.042;6.812;2023-05-10T00:05:34;16.90;99.90
31967;DHT22;18496;52.042;6.812;2023-05-10T00:07:38;16.90;99.90
31967;DHT22;18496;52.042;6.812;2023-05-10T00:09:41;16.90;99.90
31967;DHT22;18496;52.042;6.812;2023-05-10T00:11:45;16.80;99.90
31967;DHT22;18496;52.042;6.812;2023-05-10T00:13:49;16.70;99.90
31967;DHT22;18496;52.042;6.812;2023-05-10T00:15:52;16.70;99.90
31967;DHT22;18496;52.042;6.812;2023-05-10T00:17:59;16.60;99.90
31967;DHT22;18496;52.042;6.812;2023-05-10T00:20:04;16.60;99.90
31967;DHT22;18496;52.042;6.812;2023-05-10T00:22:08;16.60;99.90
31967;DHT22;18496;52.042;6.812;2023-05-10T00:24:12;16.60;99.90
31967;DHT22;18496;52.042;6.812;2023-05-10T00:26:15;16.50;99.90
31967;DHT22;18496;52.042;6.812;2023-05-10T00:28:22;16.60;99.90
31967;DHT22;18496;52.042;6.812;2023-05-10T00:30:26;16.70;99.90
31967;DHT22;18496;52.042;6.812;2023-05-10T00:32:33;16.70;99.90
31967;DHT22;18496;52.042;6.812;2023-05-10T00:34:36;16.70;99.90
31967;DHT22;18496;52.042;6.812;2023-05-10T00:36:40;16.70;99.90
31967;DHT22;18496;52.042;6.812;2023-05-10T00:38:44;16.70;99.90
31967;DHT22;18496;52.042;6.812;2023-05-10T00:40:48;16.70;99.90
31967;DHT22;18496;52.042;6.812;2023-05-10T00:43:00;16.70;99.90
31967;DHT22;18496;52.042;6.812;2023-05-10T00:45:05;16.70;99.90
31967;DHT22;18496;52.042;6.812;2023-05-10T00:47:10;16.70;99.90
31967;DHT22;18496;52.042;6.812;2023-05-10T00:49:15;16.70;99.90
31967;DHT22;18496;52.042;6.812;2023-05-10T00:51:19;16.70;99.90
31967;DHT22;18496;52.042;6.812;2023-05-10T00:53:24;16.60;99.90
31967;DHT22;18496;52.042;6.812;2023-05-10T00:55:29;16.60;99.90
31967;DHT22;18496;52.042;6.812;2023-05-10T00:57:33;16.60;99.90
31967;DHT22;18496;52.042;6.812;2023-05-10T00:59:37;16.60;99.90
31967;DHT22;18496;52.042;6.812;2023-05-10T01:01:43;16.70;99.90
31967;DHT22;18496;52.042;6.812;2023-05-10T01:03:47;16.70;99.90
31967;DHT22;18496;52.042;6.812;2023-05-10T01:05:52;16.70;99.90
31967;DHT22;18496;52.042;6.812;2023-05-10T01:07:56;16.70;99.90
31967;DHT22;18496;52.042;6.812;2023-05-10T01:10:00;16.80;99.90
31967;DHT22;18496;52.042;6.812;2023-05-10T01:12:04;16.70;99.90
31967;DHT22;18496;52.042;6.812;2023-05-10T01:14:10;16.80;99.90
31967;DHT22;18496;52.042;6.812;2023-05-10T01:16:14;16.80;99.90
31967;DHT22;18496;52.042;6.812;2023-05-10T01:18:20;16.80;99.90
31967;DHT22;18496;52.042;6.812;2023-05-10T01:20:24;16.80;99.90
31967;DHT22;18496;52.042;6.812;2023-05-10T01:22:38;16.80;99.90
31967;DHT22;18496;52.042;6.812;2023-05-10T01:34:25;16.80;99.90
31967;DHT22;18496;52.042;6.812;2023-05-10T01:36:32;16.80;99.90
31967;DHT22;18496;52.042;6.812;2023-05-10T01:38:51;16.80;99.90
31967;DHT22;18496;52.042;6.812;2023-05-10T01:43:19;16.80;99.90
31967;DHT22;18496;52.042;6.812;2023-05-10T01:45:30;16.80;99.90
31967;DHT22;18496;52.042;6.812;2023-05-10T01:47:40;16.80;99.90
31967;DHT22;18496;52.042;6.812;2023-05-10T01:49:50;16.80;99.90
31967;DHT22;18496;52.042;6.812;2023-05-10T01:52:00;16.80;99.90
31967;DHT22;18496;52.042;6.812;2023-05-10T01:54:09;16.80;99.90
31967;DHT22;18496;52.042;6.812;2023-05-10T01:56:14;16.80;99.90
31967;DHT22;18496;52.042;6.812;2023-05-10T01:58:39;16.80;99.90
31967;DHT22;18496;52.042;6.812;2023-05-10T02:00:46;16.90;99.90
31967;DHT22;18496;52.042;6.812;2023-05-10T02:02:52;16.80;99.90
31967;DHT22;18496;52.042;6.812;2023-05-10T02:04:58;16.80;99.90
31967;DHT22;18496;52.042;6.812;2023-05-10T02:07:03;16.80;99.90
31967;DHT22;18496;52.042;6.812;2023-05-10T02:09:09;16.80;99.90
31967;DHT22;18496;52.042;6.812;2023-05-10T02:11:14;16.80;99.90
31967;DHT22;18496;52.042;6.812;2023-05-10T02:13:18;16.80;99.90
31967;DHT22;18496;52.042;6.812;2023-05-10T02:15:23;16.80;99.90
31967;DHT22;18496;52.042;6.812;2023-05-10T02:17:29;16.70;99.90
31967;DHT22;18496;52.042;6.812;2023-05-10T02:19:34;16.70;99.90
31967;DHT22;18496;52.042;6.812;2023-05-10T02:21:40;16.80;99.90
31967;DHT22;18496;52.042;6.812;2023-05-10T02:23:45;16.70;99.90
31967;DHT22;18496;52.042;6.812;2023-05-10T02:25:51;16.80;99.90
31967;DHT22;18496;52.042;6.812;2023-05-10T02:28:01;16.80;99.90
31967;DHT22;18496;52.042;6.812;2023-05-10T02:30:06;16.80;99.90
31967;DHT22;18496;52.042;6.812;2023-05-10T02:32:11;16.80;99.90
31967;DHT22;18496;52.042;6.812;2023-05-10T02:34:15;16.80;99.90
31967;DHT22;18496;52.042;6.812;2023-05-10T02:36:21;16.80;99.90
31967;DHT22;18496;52.042;6.812;2023-05-10T02:38:25;16.80;99.90
31967;DHT22;18496;52.042;6.812;2023-05-10T02:40:30;16.80;99.90
31967;DHT22;18496;52.042;6.812;2023-05-10T02:42:37;16.80;99.90
31967;DHT22;18496;52.042;6.812;2023-05-10T02:44:42;16.70;99.90
31967;DHT22;18496;52.042;6.812;2023-05-10T02:46:47;16.80;99.90
31967;DHT22;18496;52.042;6.812;2023-05-10T02:48:51;16.70;99.90
31967;DHT22;18496;52.042;6.812;2023-05-10T02:50:56;16.70;99.90
31967;DHT22;18496;52.042;6.812;2023-05-10T02:53:10;16.70;99.90
31967;DHT22;18496;52.042;6.812;2023-05-10T02:55:16;16.70;99.90
31967;DHT22;18496;52.042;6.812;2023-05-10T02:57:28;16.60;99.90
31967;DHT22;18496;52.042;6.812;2023-05-10T02:59:33;16.70;99.90
31967;DHT22;18496;52.042;6.812;2023-05-10T03:01:37;16.60;99.90
31967;DHT22;18496;52.042;6.812;2023-05-10T03:03:40;16.60;99.90
31967;DHT22;18496;52.042;6.812;2023-05-10T03:05:44;16.60;99.90
31967;DHT22;18496;52.042;6.812;2023-05-10T03:07:48;16.60;99.90
31967;DHT22;18496;52.042;6.812;2023-05-10T03:09:52;16.60;99.90
31967;DHT22;18496;52.042;6.812;2023-05-10T03:16:47;16.50;99.90
31967;DHT22;18496;52.042;6.812;2023-05-10T03:19:26;16.40;99.90
31967;DHT22;18496;52.042;6.812;2023-05-10T03:21:31;16.50;99.90
31967;DHT22;18496;52.042;6.812;2023-05-10T03:23:43;16.40;99.90
31967;DHT22;18496;52.042;6.812;2023-05-10T03:25:48;16.40;99.90
31967;DHT22;18496;52.042;6.812;2023-05-10T03:27:53;16.40;99.90
31967;DHT22;18496;52.042;6.812;2023-05-10T03:29:58;16.40;99.90
31967;DHT22;18496;52.042;6.812;2023-05-10T03:32:02;16.40;99.90
31967;DHT22;18496;52.042;6.812;2023-05-10T03:34:08;16.40;99.90
31967;DHT22;18496;52.042;6.812;2023-05-10T03:36:11;16.40;99.90
31967;DHT22;18496;52.042;6.812;2023-05-10T03:38:15;16.40;99.90
31967;DHT22;18496;52.042;6.812;2023-05-10T03:40:19;16.40;99.90
31967;DHT22;18496;52.042;6.812;2023-05-10T03:42:23;16.40;99.90
31967;DHT22;18496;52.042;6.812;2023-05-10T03:44:27;16.40;99.90
31967;DHT22;18496;52.042;6.812;2023-05-10T03:46:31;16.40;99.90
31967;DHT22;18496;52.042;6.812;2023-05-10T03:48:35;16.40;99.90
31967;DHT22;18496;52.042;6.812;2023-05-10T03:50:38;16.40;99.90
31967;DHT22;18496;52.042;6.812;2023-05-10T03:52:42;16.30;99.90
31967;DHT22;18496;52.042;6.812;2023-05-10T03:54:46;16.40;99.90
31967;DHT22;18496;52.042;6.812;2023-05-10T03:56:50;16.30;99.90
31967;DHT22;18496;52.042;6.812;2023-05-10T03:58:56;16.30;99.90
31967;DHT22;18496;52.042;6.812;2023-05-10T04:00:59;16.30;99.90
31967;DHT22;18496;52.042;6.812;2023-05-10T04:03:03;16.30;99.90
31967;DHT22;18496;52.042;6.812;2023-05-10T04:05:07;16.30;99.90
31967;DHT22;18496;52.042;6.812;2023-05-10T04:07:11;16.20;99.90
31967;DHT22;18496;52.042;6.812;2023-05-10T04:09:15;16.20;99.90
31967;DHT22;18496;52.042;6.812;2023-05-10T04:11:20;16.20;99.90
31967;DHT22;18496;52.042;6.812;2023-05-10T04:13:25;16.20;99.90
31967;DHT22;18496;52.042;6.812;2023-05-10T04:15:31;16.20;99.90
31967;DHT22;18496;52.042;6.812;2023-05-10T04:17:34;16.30;99.90
31967;DHT22;18496;52.042;6.812;2023-05-10T04:19:38;16.30;99.90
31967;DHT22;18496;52.042;6.812;2023-05-10T04:21:42;16.30;99.90
31967;DHT22;18496;52.042;6.812;2023-05-10T04:23:45;16.30;99.90
31967;DHT22;18496;52.042;6.812;2023-05-10T04:25:49;16.30;99.90
31967;DHT22;18496;52.042;6.812;2023-05-10T04:27:53;16.40;99.90
31967;DHT22;18496;52.042;6.812;2023-05-10T04:29:59;16.40;99.90
31967;DHT22;18496;52.042;6.812;2023-05-10T04:32:05;16.40;99.90
31967;DHT22;18496;52.042;6.812;2023-05-10T04:34:09;16.40;99.90
31967;DHT22;18496;52.042;6.812;2023-05-10T04:36:12;16.50;99.90
31967;DHT22;18496;52.042;6.812;2023-05-10T04:38:16;16.50;99.90
31967;DHT22;18496;52.042;6.812;2023-05-10T04:40:20;16.50;99.90
31967;DHT22;18496;52.042;6.812;2023-05-10T04:42:23;16.50;99.90
31967;DHT22;18496;52.042;6.812;2023-05-10T04:44:27;16.40;99.90
31967;DHT22;18496;52.042;6.812;2023-05-10T04:46:31;16.40;99.90
31967;DHT22;18496;52.042;6.812;2023-05-10T04:48:34;16.40;99.90
31967;DHT22;18496;52.042;6.812;2023-05-10T04:50:39;16.40;99.90
31967;DHT22;18496;52.042;6.812;2023-05-10T04:52:43;16.30;99.90
31967;DHT22;18496;52.042;6.812;2023-05-10T04:54:46;16.40;99.90
31967;DHT22;18496;52.042;6.812;2023-05-10T04:56:50;16.40;99.90
31967;DHT22;18496;52.042;6.812;2023-05-10T04:58:54;16.40;99.90
31967;DHT22;18496;52.042;6.812;2023-05-10T05:01:05;16.40;99.90
31967;DHT22;18496;52.042;6.812;2023-05-10T05:03:09;16.40;99.90
31967;DHT22;18496;52.042;6.812;2023-05-10T05:05:13;16.40;99.90
31967;DHT22;18496;52.042;6.812;2023-05-10T05:07:16;16.30;99.90
31967;DHT22;18496;52.042;6.812;2023-05-10T05:09:20;16.30;99.90
31967;DHT22;18496;52.042;6.812;2023-05-10T05:11:23;16.20;99.90
31967;DHT22;18496;52.042;6.812;2023-05-10T05:13:28;16.20;99.90
31967;DHT22;18496;52.042;6.812;2023-05-10T05:15:32;16.20;99.90
31967;DHT22;18496;52.042;6.812;2023-05-10T05:17:36;16.20;99.90
31967;DHT22;18496;52.042;6.812;2023-05-10T05:19:40;16.20;99.90
31967;DHT22;18496;52.042;6.812;2023-05-10T05:21:44;16.20;99.90
31967;DHT22;18496;52.042;6.812;2023-05-10T05:23:47;16.20;99.90
31967;DHT22;18496;52.042;6.812;2023-05-10T05:25:52;16.20;99.90
31967;DHT22;18496;52.042;6.812;2023-05-10T05:27:56;16.10;99.90
31967;DHT22;18496;52.042;6.812;2023-05-10T05:29:59;16.10;99.90
31967;DHT22;18496;52.042;6.812;2023-05-10T05:32:03;16.20;99.90
31967;DHT22;18496;52.042;6.812;2023-05-10T05:34:07;16.20;99.90
31967;DHT22;18496;52.042;6.812;2023-05-10T05:36:11;16.20;99.90
31967;DHT22;18496;52.042;6.812;2023-05-10T05:38:14;16.20;99.90
31967;DHT22;18496;52.042;6.812;2023-05-10T05:40:18;16.20;99.90
31967;DHT22;18496;52.042;6.812;2023-05-10T05:42:22;16.20;99.90
31967;DHT22;18496;52.042;6.812;2023-05-10T05:44:25;16.20;99.90
31967;DHT22;18496;52.042;6.812;2023-05-10T05:46:31;16.10;99.90
31967;DHT22;18496;52.042;6.812;2023-05-10T05:48:34;16.10;99.90
31967;DHT22;18496;52.042;6.812;2023-05-10T05:50:38;16.00;99.90
31967;DHT22;18496;52.042;6.812;2023-05-10T05:52:42;16.00;99.90
31967;DHT22;18496;52.042;6.812;2023-05-10T05:54:45;16.00;99.90
31967;DHT22;18496;52.042;6.812;2023-05-10T05:56:49;15.90;99.90
31967;DHT22;18496;52.042;6.812;2023-05-10T05:58:53;15.90;99.90
31967;DHT22;18496;52.042;6.812;2023-05-10T06:00:56;15.80;99.90
31967;DHT22;18496;52.042;6.812;2023-05-10T06:03:00;15.80;99.90
31967;DHT22;18496;52.042;6.812;2023-05-10T06:05:04;15.80;99.90
31967;DHT22;18496;52.042;6.812;2023-05-10T06:07:08;15.80;99.90
31967;DHT22;18496;52.042;6.812;2023-05-10T06:09:12;15.80;99.90
31967;DHT22;18496;52.042;6.812;2023-05-10T06:11:15;15.90;99.90
31967;DHT22;18496;52.042;6.812;2023-05-10T06:13:19;15.90;99.90
31967;DHT22;18496;52.042;6.812;2023-05-10T06:15:22;15.90;99.90
31967;DHT22;18496;52.042;6.812;2023-05-10T06:17:29;15.90;99.90
31967;DHT22;18496;52.042;6.812;2023-05-10T06:19:32;15.90;99.90
31967;DHT22;18496;52.042;6.812;2023-05-10T06:21:36;15.90;99.90
31967;DHT22;18496;52.042;6.812;2023-05-10T06:23:40;15.90;99.90
31967;DHT22;18496;52.042;6.812;2023-05-10T06:25:43;15.90;99.90
31967;DHT22;18496;52.042;6.812;2023-05-10T06:27:47;16.00;99.90
31967;DHT22;18496;52.042;6.812;2023-05-10T06:29:51;16.00;99.90
31967;DHT22;18496;52.042;6.812;2023-05-10T06:31:54;16.10;99.90
31967;DHT22;18496;52.042;6.812;2023-05-10T06:33:58;16.10;99.90
31967;DHT22;18496;52.042;6.812;2023-05-10T06:36:02;16.10;99.90
31967;DHT22;18496;52.042;6.812;2023-05-10T06:38:05;16.20;99.90
31967;DHT22;18496;52.042;6.812;2023-05-10T06:40:09;16.20;99.90
31967;DHT22;18496;52.042;6.812;2023-05-10T06:42:13;16.30;99.90
31967;DHT22;18496;52.042;6.812;2023-05-10T06:44:17;16.20;99.90
31967;DHT22;18496;52.042;6.812;2023-05-10T06:46:20;16.20;99.90
31967;DHT22;18496;52.042;6.812;2023-05-10T06:48:24;16.20;99.90
31967;DHT22;18496;52.042;6.812;2023-05-10T06:50:28;16.20;99.90
31967;DHT22;18496;52.042;6.812;2023-05-10T06:52:31;16.20;99.90
31967;DHT22;18496;52.042;6.812;2023-05-10T06:54:35;16.20;99.90
31967;DHT22;18496;52.042;6.812;2023-05-10T06:56:39;16.20;99.90
31967;DHT22;18496;52.042;6.812;2023-05-10T06:58:43;16.30;99.90
31967;DHT22;18496;52.042;6.812;2023-05-10T07:00:46;16.30;99.90
31967;DHT22;18496;52.042;6.812;2023-05-10T07:02:50;16.30;99.90
31967;DHT22;18496;52.042;6.812;2023-05-10T07:04:54;16.30;99.90
31967;DHT22;18496;52.042;6.812;2023-05-10T07:06:58;16.30;99.90
31967;DHT22;18496;52.042;6.812;2023-05-10T07:09:01;16.30;99.90
31967;DHT22;18496;52.042;6.812;2023-05-10T07:11:06;16.30;99.90
31967;DHT22;18496;52.042;6.812;2023-05-10T07:13:13;16.30;99.90
31967;DHT22;18496;52.042;6.812;2023-05-10T07:15:17;16.30;99.90
31967;DHT22;18496;52.042;6.812;2023-05-10T07:17:21;16.30;99.90
31967;DHT22;18496;52.042;6.812;2023-05-10T07:19:24;16.30;99.90
31967;DHT22;18496;52.042;6.812;2023-05-10T07:21:28;16.30;99.90
31967;DHT22;18496;52.042;6.812;2023-05-10T07:23:32;16.20;99.90
31967;DHT22;18496;52.042;6.812;2023-05-10T07:25:35;16.20;99.90
31967;DHT22;18496;52.042;6.812;2023-05-10T07:27:39;16.10;99.90
31967;DHT22;18496;52.042;6.812;2023-05-10T07:29:43;16.10;99.90
31967;DHT22;18496;52.042;6.812;2023-05-10T07:31:46;16.10;99.90
31967;DHT22;18496;52.042;6.812;2023-05-10T07:33:50;16.10;99.90
31967;DHT22;18496;52.042;6.812;2023-05-10T07:35:53;16.10;99.90
31967;DHT22;18496;52.042;6.812;2023-05-10T07:37:57;16.10;99.90
31967;DHT22;18496;52.042;6.812;2023-05-10T07:40:01;16.10;99.90
31967;DHT22;18496;52.042;6.812;2023-05-10T07:42:04;16.10;99.90
31967;DHT22;18496;52.042;6.812;2023-05-10T07:44:09;16.00;99.90
31967;DHT22;18496;52.042;6.812;2023-05-10T07:46:12;16.00;99.90
31967;DHT22;18496;52.042;6.812;2023-05-10T07:48:16;16.00;99.90
31967;DHT22;18496;52.042;6.812;2023-05-10T07:50:19;16.00;99.90
31967;DHT22;18496;52.042;6.812;2023-05-10T07:52:24;16.00;99.90
31967;DHT22;18496;52.042;6.812;2023-05-10T07:54:28;16.00;99.90
31967;DHT22;18496;52.042;6.812;2023-05-10T07:56:32;16.10;99.90
31967;DHT22;18496;52.042;6.812;2023-05-10T07:58:36;16.10;99.90
31967;DHT22;18496;52.042;6.812;2023-05-10T08:00:39;16.10;99.90
31967;DHT22;18496;52.042;6.812;2023-05-10T08:02:44;16.10;99.90
31967;DHT22;18496;52.042;6.812;2023-05-10T08:04:48;16.20;99.90
31967;DHT22;18496;52.042;6.812;2023-05-10T08:06:51;16.30;99.90
31967;DHT22;18496;52.042;6.812;2023-05-10T08:08:55;16.30;99.90
31967;DHT22;18496;52.042;6.812;2023-05-10T08:10:59;16.30;99.90
31967;DHT22;18496;52.042;6.812;2023-05-10T08:13:03;16.30;99.90
31967;DHT22;18496;52.042;6.812;2023-05-10T08:15:07;16.30;99.90
31967;DHT22;18496;52.042;6.812;2023-05-10T08:17:11;16.20;99.90
31967;DHT22;18496;52.042;6.812;2023-05-10T08:19:15;16.10;99.90
31967;DHT22;18496;52.042;6.812;2023-05-10T08:21:22;16.20;99.90
31967;DHT22;18496;52.042;6.812;2023-05-10T08:23:25;16.20;99.90
31967;DHT22;18496;52.042;6.812;2023-05-10T08:25:29;16.20;99.90
31967;DHT22;18496;52.042;6.812;2023-05-10T08:27:33;16.30;99.90
31967;DHT22;18496;52.042;6.812;2023-05-10T08:29:37;16.30;99.90
31967;DHT22;18496;52.042;6.812;2023-05-10T08:31:41;16.30;99.90
31967;DHT22;18496;52.042;6.812;2023-05-10T08:33:44;16.30;99.90
31967;DHT22;18496;52.042;6.812;2023-05-10T08:35:48;16.30;99.90
31967;DHT22;18496;52.042;6.812;2023-05-10T08:37:52;16.40;99.90
31967;DHT22;18496;52.042;6.812;2023-05-10T08:39:55;16.40;99.90
31967;DHT22;18496;52.042;6.812;2023-05-10T08:42:02;16.30;99.90
31967;DHT22;18496;52.042;6.812;2023-05-10T08:44:07;16.40;99.90
31967;DHT22;18496;52.042;6.812;2023-05-10T08:46:16;16.40;99.90
31967;DHT22;18496;52.042;6.812;2023-05-10T08:48:24;16.30;99.90
31967;DHT22;18496;52.042;6.812;2023-05-10T08:50:29;16.30;99.90
31967;DHT22;18496;52.042;6.812;2023-05-10T08:52:38;16.30;99.90
31967;DHT22;18496;52.042;6.812;2023-05-10T08:54:43;16.30;99.90
31967;DHT22;18496;52.042;6.812;2023-05-10T08:56:47;16.30;99.90
31967;DHT22;18496;52.042;6.812;2023-05-10T08:58:51;16.40;99.90
31967;DHT22;18496;52.042;6.812;2023-05-10T09:00:55;16.40;99.90
31967;DHT22;18496;52.042;6.812;2023-05-10T09:02:59;16.40;99.90
31967;DHT22;18496;52.042;6.812;2023-05-10T09:05:04;16.40;99.90
31967;DHT22;18496;52.042;6.812;2023-05-10T09:07:08;16.40;99.90
31967;DHT22;18496;52.042;6.812;2023-05-10T09:09:12;16.40;99.90
31967;DHT22;18496;52.042;6.812;2023-05-10T09:11:16;16.40;99.90
31967;DHT22;18496;52.042;6.812;2023-05-10T09:13:21;16.40;99.90
31967;DHT22;18496;52.042;6.812;2023-05-10T09:15:25;16.40;99.90
31967;DHT22;18496;52.042;6.812;2023-05-10T09:17:30;16.30;99.90
31967;DHT22;18496;52.042;6.812;2023-05-10T09:19:33;16.30;99.90
31967;DHT22;18496;52.042;6.812;2023-05-10T09:21:37;16.30;99.90
31967;DHT22;18496;52.042;6.812;2023-05-10T09:23:45;16.30;99.90
31967;DHT22;18496;52.042;6.812;2023-05-10T09:26:02;16.30;99.90
31967;DHT22;18496;52.042;6.812;2023-05-10T09:28:08;16.20;99.90
31967;DHT22;18496;52.042;6.812;2023-05-10T09:30:17;16.20;99.90
31967;DHT22;18496;52.042;6.812;2023-05-10T09:32:21;16.20;99.90
31967;DHT22;18496;52.042;6.812;2023-05-10T09:34:29;16.30;99.90
31967;DHT22;18496;52.042;6.812;2023-05-10T09:36:33;16.30;99.90
31967;DHT22;18496;52.042;6.812;2023-05-10T09:40:55;16.40;99.90
31967;DHT22;18496;52.042;6.812;2023-05-10T09:43:07;16.50;99.90
31967;DHT22;18496;52.042;6.812;2023-05-10T09:45:10;16.50;99.90
31967;DHT22;18496;52.042;6.812;2023-05-10T09:47:17;16.50;99.90
31967;DHT22;18496;52.042;6.812;2023-05-10T09:49:22;16.50;99.90
31967;DHT22;18496;52.042;6.812;2023-05-10T09:51:26;16.50;99.90
31967;DHT22;18496;52.042;6.812;2023-05-10T09:53:30;16.50;99.90
31967;DHT22;18496;52.042;6.812;2023-05-10T09:55:42;16.40;99.90
31967;DHT22;18496;52.042;6.812;2023-05-10T09:57:58;16.50;99.90
31967;DHT22;18496;52.042;6.812;2023-05-10T10:00:02;16.50;99.90
31967;DHT22;18496;52.042;6.812;2023-05-10T10:02:17;16.50;99.90
31967;DHT22;18496;52.042;6.812;2023-05-10T10:04:21;16.60;99.90
31967;DHT22;18496;52.042;6.812;2023-05-10T10:06:25;16.60;99.90
31967;DHT22;18496;52.042;6.812;2023-05-10T10:08:28;16.70;99.90
31967;DHT22;18496;52.042;6.812;2023-05-10T10:10:33;16.70;99.90
31967;DHT22;18496;52.042;6.812;2023-05-10T10:12:37;16.70;99.90
31967;DHT22;18496;52.042;6.812;2023-05-10T10:14:41;16.70;99.90
31967;DHT22;18496;52.042;6.812;2023-05-10T10:16:45;16.70;99.90
31967;DHT22;18496;52.042;6.812;2023-05-10T10:18:49;16.70;99.90
31967;DHT22;18496;52.042;6.812;2023-05-10T10:20:54;16.80;99.90
31967;DHT22;18496;52.042;6.812;2023-05-10T10:22:57;16.80;99.90
31967;DHT22;18496;52.042;6.812;2023-05-10T10:25:02;16.80;99.90
31967;DHT22;18496;52.042;6.812;2023-05-10T10:27:43;16.90;99.90
31967;DHT22;18496;52.042;6.812;2023-05-10T10:30:10;16.80;99.90
31967;DHT22;18496;52.042;6.812;2023-05-10T10:34:34;17.00;99.90
31967;DHT22;18496;52.042;6.812;2023-05-10T10:36:44;17.10;99.90
31967;DHT22;18496;52.042;6.812;2023-05-10T10:41:07;17.20;99.90
31967;DHT22;18496;52.042;6.812;2023-05-10T10:43:25;17.20;99.90
31967;DHT22;18496;52.042;6.812;2023-05-10T10:45:29;17.30;99.90
31967;DHT22;18496;52.042;6.812;2023-05-10T10:47:33;17.30;99.90
31967;DHT22;18496;52.042;6.812;2023-05-10T10:52:13;17.40;99.90
31967;DHT22;18496;52.042;6.812;2023-05-10T10:54:27;17.50;99.90
31967;DHT22;18496;52.042;6.812;2023-05-10T10:56:31;17.60;99.90
31967;DHT22;18496;52.042;6.812;2023-05-10T10:58:36;17.70;99.90
31967;DHT22;18496;52.042;6.812;2023-05-10T11:00:40;17.70;99.90
31967;DHT22;18496;52.042;6.812;2023-05-10T11:02:46;17.90;99.90
31967;DHT22;18496;52.042;6.812;2023-05-10T11:04:52;17.90;99.90
31967;DHT22;18496;52.042;6.812;2023-05-10T11:07:15;18.00;99.90
31967;DHT22;18496;52.042;6.812;2023-05-10T11:09:19;18.10;99.90
31967;DHT22;18496;52.042;6.812;2023-05-10T11:11:28;18.10;99.90
31967;DHT22;18496;52.042;6.812;2023-05-10T11:15:47;18.00;99.90
31967;DHT22;18496;52.042;6.812;2023-05-10T11:17:51;17.90;99.90
31967;DHT22;18496;52.042;6.812;2023-05-10T11:20:09;17.80;99.90
31967;DHT22;18496;52.042;6.812;2023-05-10T11:22:13;17.80;99.90
31967;DHT22;18496;52.042;6.812;2023-05-10T11:24:22;17.70;99.90
31967;DHT22;18496;52.042;6.812;2023-05-10T11:26:31;17.70;99.90
31967;DHT22;18496;52.042;6.812;2023-05-10T11:28:44;17.70;99.90
31967;DHT22;18496;52.042;6.812;2023-05-10T11:30:48;17.60;99.90
31967;DHT22;18496;52.042;6.812;2023-05-10T11:32:52;17.50;99.90
31967;DHT22;18496;52.042;6.812;2023-05-10T11:34:56;17.50;99.90
31967;DHT22;18496;52.042;6.812;2023-05-10T11:36:59;17.40;99.90
31967;DHT22;18496;52.042;6.812;2023-05-10T11:39:04;17.30;99.90
31967;DHT22;18496;52.042;6.812;2023-05-10T11:41:09;17.30;99.90
31967;DHT22;18496;52.042;6.812;2023-05-10T11:43:13;17.20;99.90
31967;DHT22;18496;52.042;6.812;2023-05-10T11:45:17;17.10;99.90
31967;DHT22;18496;52.042;6.812;2023-05-10T11:47:21;17.00;99.90
31967;DHT22;18496;52.042;6.812;2023-05-10T11:49:26;17.00;99.90
31967;DHT22;18496;52.042;6.812;2023-05-10T11:51:32;17.00;99.90
31967;DHT22;18496;52.042;6.812;2023-05-10T11:53:36;17.00;99.90
31967;DHT22;18496;52.042;6.812;2023-05-10T11:55:41;17.10;99.90
31967;DHT22;18496;52.042;6.812;2023-05-10T11:57:45;17.10;99.90
31967;DHT22;18496;52.042;6.812;2023-05-10T11:59:53;17.20;99.90
31967;DHT22;18496;52.042;6.812;2023-05-10T12:01:58;17.20;99.90
31967;DHT22;18496;52.042;6.812;2023-05-10T12:04:02;17.10;99.90
31967;DHT22;18496;52.042;6.812;2023-05-10T12:06:07;17.10;99.90
31967;DHT22;18496;52.042;6.812;2023-05-10T12:08:12;17.10;99.90
31967;DHT22;18496;52.042;6.812;2023-05-10T12:10:17;17.20;99.90
31967;DHT22;18496;52.042;6.812;2023-05-10T12:12:38;17.30;99.90
31967;DHT22;18496;52.042;6.812;2023-05-10T12:14:42;17.40;99.90
31967;DHT22;18496;52.042;6.812;2023-05-10T12:16:47;17.40;99.90
31967;DHT22;18496;52.042;6.812;2023-05-10T12:18:52;17.50;99.90
31967;DHT22;18496;52.042;6.812;2023-05-10T12:21:03;17.60;99.90
31967;DHT22;18496;52.042;6.812;2023-05-10T12:23:09;17.60;99.90
31967;DHT22;18496;52.042;6.812;2023-05-10T12:25:13;17.60;99.90
31967;DHT22;18496;52.042;6.812;2023-05-10T12:27:16;17.70;99.90
31967;DHT22;18496;52.042;6.812;2023-05-10T12:29:20;17.70;99.90
31967;DHT22;18496;52.042;6.812;2023-05-10T12:31:24;17.70;99.90
31967;DHT22;18496;52.042;6.812;2023-05-10T12:33:38;17.60;99.90
31967;DHT22;18496;52.042;6.812;2023-05-10T12:35:47;17.60;99.90
31967;DHT22;18496;52.042;6.812;2023-05-10T12:37:51;17.60;99.90
31967;DHT22;18496;52.042;6.812;2023-05-10T12:39:55;17.60;99.90
31967;DHT22;18496;52.042;6.812;2023-05-10T12:41:58;17.60;99.90
31967;DHT22;18496;52.042;6.812;2023-05-10T12:44:02;17.60;99.90
31967;DHT22;18496;52.042;6.812;2023-05-10T12:46:08;17.60;99.90
31967;DHT22;18496;52.042;6.812;2023-05-10T12:48:12;17.60;99.90
31967;DHT22;18496;52.042;6.812;2023-05-10T12:50:15;17.60;99.90
31967;DHT22;18496;52.042;6.812;2023-05-10T12:52:19;17.60;99.90
31967;DHT22;18496;52.042;6.812;2023-05-10T12:54:23;17.60;99.90
31967;DHT22;18496;52.042;6.812;2023-05-10T12:56:26;17.60;99.90
31967;DHT22;18496;52.042;6.812;2023-05-10T12:58:30;17.60;99.90
31967;DHT22;18496;52.042;6.812;2023-05-10T13:00:33;17.60;99.90
31967;DHT22;18496;52.042;6.812;2023-05-10T13:02:37;17.60;99.90
31967;DHT22;18496;52.042;6.812;2023-05-10T13:04:41;17.60;99.90
31967;DHT22;18496;52.042;6.812;2023-05-10T13:06:45;17.50;99.90
31967;DHT22;18496;52.042;6.812;2023-05-10T13:08:49;17.60;99.90
31967;DHT22;18496;52.042;6.812;2023-05-10T13:10:52;17.60;99.90
31967;DHT22;18496;52.042;6.812;2023-05-10T13:12:57;17.60;99.90
31967;DHT22;18496;52.042;6.812;2023-05-10T13:15:01;17.60;99.90
31967;DHT22;18496;52.042;6.812;2023-05-10T13:17:05;17.60;99.90
31967;DHT22;18496;52.042;6.812;2023-05-10T13:19:10;17.60;99.90
31967;DHT22;18496;52.042;6.812;2023-05-10T13:21:14;17.70;99.90
31967;DHT22;18496;52.042;6.812;2023-05-10T13:23:18;17.80;99.90
31967;DHT22;18496;52.042;6.812;2023-05-10T13:25:22;17.80;99.90
31967;DHT22;18496;52.042;6.812;2023-05-10T13:27:25;17.90;99.90
31967;DHT22;18496;52.042;6.812;2023-05-10T13:29:29;17.90;99.90
31967;DHT22;18496;52.042;6.812;2023-05-10T13:31:33;17.90;99.90
31967;DHT22;18496;52.042;6.812;2023-05-10T13:33:37;17.90;99.90
31967;DHT22;18496;52.042;6.812;2023-05-10T13:35:40;18.00;99.90
31967;DHT22;18496;52.042;6.812;2023-05-10T13:37:44;18.00;99.90
31967;DHT22;18496;52.042;6.812;2023-05-10T13:39:48;18.00;99.90